sensor_id;sensor_type;location;lat;lon;timestamp;P1;durP1;ratioP1;P2;durP2;ratioP2
35803;SDS011;21924;51.934;7.414;2024-01-30T00:02:14;26.70;;;14.50;;
35803;SDS011;21924;51.934;7.414;2024-01-30T00:04:59;26.48;;;16.25;;
35803;SDS011;21924;51.934;7.414;2024-01-30T00:07:43;25.92;;;16.00;;
35803;SDS011;21924;51.934;7.414;2024-01-30T00:10:28;29.42;;;15.45;;
35803;SDS011;21924;51.934;7.414;2024-01-30T00:13:12;25.23;;;15.60;;
35803;SDS011;21924;51.934;7.414;2024-01-30T00:15:57;32.75;;;18.27;;
35803;SDS011;21924;51.934;7.414;2024-01-30T00:18:41;32.55;;;17.05;;
35803;SDS011;21924;51.934;7.414;2024-01-30T00:21:25;32.15;;;17.60;;
35803;SDS011;21924;51.934;7.414;2024-01-30T00:24:09;27.38;;;16.85;;
35803;SDS011;21924;51.934;7.414;2024-01-30T00:26:53;30.52;;;17.77;;
35803;SDS011;21924;51.934;7.414;2024-01-30T00:29:37;31.17;;;17.55;;
35803;SDS011;21924;51.934;7.414;2024-01-30T00:32:21;34.30;;;18.27;;
35803;SDS011;21924;51.934;7.414;2024-01-30T00:35:06;34.50;;;17.48;;
35803;SDS011;21924;51.934;7.414;2024-01-30T00:37:53;29.58;;;16.23;;
35803;SDS011;21924;51.934;7.414;2024-01-30T00:40:37;31.10;;;17.05;;
35803;SDS011;21924;51.934;7.414;2024-01-30T00:43:21;28.17;;;15.95;;
35803;SDS011;21924;51.934;7.414;2024-01-30T00:46:05;32.65;;;17.73;;
35803;SDS011;21924;51.934;7.414;2024-01-30T00:48:49;35.40;;;17.10;;
35803;SDS011;21924;51.934;7.414;2024-01-30T00:51:33;30.98;;;16.98;;
35803;SDS011;21924;51.934;7.414;2024-01-30T00:54:18;30.88;;;17.42;;
35803;SDS011;21924;51.934;7.414;2024-01-30T00:57:02;26.35;;;16.48;;
35803;SDS011;21924;51.934;7.414;2024-01-30T00:59:47;27.60;;;16.40;;
35803;SDS011;21924;51.934;7.414;2024-01-30T01:02:31;34.30;;;17.05;;
35803;SDS011;21924;51.934;7.414;2024-01-30T01:05:15;30.00;;;16.27;;
35803;SDS011;21924;51.934;7.414;2024-01-30T01:07:59;29.73;;;15.18;;
35803;SDS011;21924;51.934;7.414;2024-01-30T01:10:44;25.88;;;14.88;;
35803;SDS011;21924;51.934;7.414;2024-01-30T01:13:28;28.80;;;17.23;;
35803;SDS011;21924;51.934;7.414;2024-01-30T01:16:12;32.53;;;18.23;;
35803;SDS011;21924;51.934;7.414;2024-01-30T01:18:58;24.88;;;15.13;;
35803;SDS011;21924;51.934;7.414;2024-01-30T01:21:44;27.48;;;16.20;;
35803;SDS011;21924;51.934;7.414;2024-01-30T01:24:28;26.50;;;15.85;;
35803;SDS011;21924;51.934;7.414;2024-01-30T01:27:14;29.70;;;15.43;;
35803;SDS011;21924;51.934;7.414;2024-01-30T01:30:00;23.48;;;15.57;;
35803;SDS011;21924;51.934;7.414;2024-01-30T01:32:44;26.52;;;15.35;;
35803;SDS011;21924;51.934;7.414;2024-01-30T01:35:34;27.60;;;14.50;;
35803;SDS011;21924;51.934;7.414;2024-01-30T01:38:18;33.30;;;17.13;;
35803;SDS011;21924;51.934;7.414;2024-01-30T01:41:03;32.92;;;15.18;;
35803;SDS011;21924;51.934;7.414;2024-01-30T01:43:47;32.88;;;15.80;;
35803;SDS011;21924;51.934;7.414;2024-01-30T01:46:32;32.38;;;15.88;;
35803;SDS011;21924;51.934;7.414;2024-01-30T01:49:17;29.73;;;15.30;;
35803;SDS011;21924;51.934;7.414;2024-01-30T01:52:03;26.33;;;16.25;;
35803;SDS011;21924;51.934;7.414;2024-01-30T01:54:48;29.27;;;15.82;;
35803;SDS011;21924;51.934;7.414;2024-01-30T01:57:33;35.58;;;17.13;;
35803;SDS011;21924;51.934;7.414;2024-01-30T02:00:17;31.75;;;15.55;;
35803;SDS011;21924;51.934;7.414;2024-01-30T02:03:03;31.15;;;16.27;;
35803;SDS011;21924;51.934;7.414;2024-01-30T02:05:50;26.17;;;14.68;;
35803;SDS011;21924;51.934;7.414;2024-01-30T02:08:36;24.58;;;14.68;;
35803;SDS011;21924;51.934;7.414;2024-01-30T02:11:21;28.67;;;15.35;;
35803;SDS011;21924;51.934;7.414;2024-01-30T02:14:06;29.95;;;16.40;;
35803;SDS011;21924;51.934;7.414;2024-01-30T02:16:50;29.23;;;15.18;;
35803;SDS011;21924;51.934;7.414;2024-01-30T02:19:34;24.13;;;14.68;;
35803;SDS011;21924;51.934;7.414;2024-01-30T02:22:19;26.38;;;15.43;;
35803;SDS011;21924;51.934;7.414;2024-01-30T02:25:03;31.77;;;16.00;;
35803;SDS011;21924;51.934;7.414;2024-01-30T02:27:48;33.45;;;16.88;;
35803;SDS011;21924;51.934;7.414;2024-01-30T02:30:32;29.33;;;16.08;;
35803;SDS011;21924;51.934;7.414;2024-01-30T02:33:16;27.55;;;15.32;;
35803;SDS011;21924;51.934;7.414;2024-01-30T02:36:15;30.45;;;15.98;;
35803;SDS011;21924;51.934;7.414;2024-01-30T02:39:16;31.08;;;17.45;;
35803;SDS011;21924;51.934;7.414;2024-01-30T02:42:00;27.58;;;15.50;;
35803;SDS011;21924;51.934;7.414;2024-01-30T02:44:44;28.20;;;15.25;;
35803;SDS011;21924;51.934;7.414;2024-01-30T02:47:28;26.25;;;14.02;;
35803;SDS011;21924;51.934;7.414;2024-01-30T02:50:13;31.95;;;15.88;;
35803;SDS011;21924;51.934;7.414;2024-01-30T02:52:58;26.98;;;15.10;;
35803;SDS011;21924;51.934;7.414;2024-01-30T02:55:42;24.35;;;13.60;;
35803;SDS011;21924;51.934;7.414;2024-01-30T02:58:26;26.63;;;15.45;;
35803;SDS011;21924;51.934;7.414;2024-01-30T03:01:11;27.50;;;15.95;;
35803;SDS011;21924;51.934;7.414;2024-01-30T03:03:55;33.17;;;16.85;;
35803;SDS011;21924;51.934;7.414;2024-01-30T03:06:39;28.73;;;15.43;;
35803;SDS011;21924;51.934;7.414;2024-01-30T03:09:29;30.95;;;15.70;;
35803;SDS011;21924;51.934;7.414;2024-01-30T03:12:13;27.52;;;14.85;;
35803;SDS011;21924;51.934;7.414;2024-01-30T03:14:57;28.23;;;16.60;;
35803;SDS011;21924;51.934;7.414;2024-01-30T03:17:42;31.02;;;16.55;;
35803;SDS011;21924;51.934;7.414;2024-01-30T03:20:26;28.23;;;16.58;;
35803;SDS011;21924;51.934;7.414;2024-01-30T03:23:10;31.80;;;17.20;;
35803;SDS011;21924;51.934;7.414;2024-01-30T03:25:54;27.50;;;15.98;;
35803;SDS011;21924;51.934;7.414;2024-01-30T03:28:38;30.90;;;17.42;;
35803;SDS011;21924;51.934;7.414;2024-01-30T03:31:22;37.25;;;17.48;;
35803;SDS011;21924;51.934;7.414;2024-01-30T03:34:07;30.50;;;16.63;;
35803;SDS011;21924;51.934;7.414;2024-01-30T03:36:51;30.55;;;16.38;;
35803;SDS011;21924;51.934;7.414;2024-01-30T03:39:35;29.13;;;16.15;;
35803;SDS011;21924;51.934;7.414;2024-01-30T03:42:20;29.67;;;16.02;;
35803;SDS011;21924;51.934;7.414;2024-01-30T03:45:06;29.42;;;15.38;;
35803;SDS011;21924;51.934;7.414;2024-01-30T03:47:50;25.55;;;16.00;;
35803;SDS011;21924;51.934;7.414;2024-01-30T03:50:34;29.60;;;17.00;;
35803;SDS011;21924;51.934;7.414;2024-01-30T03:53:19;29.42;;;16.98;;
35803;SDS011;21924;51.934;7.414;2024-01-30T03:56:03;33.38;;;16.38;;
35803;SDS011;21924;51.934;7.414;2024-01-30T03:58:48;28.02;;;15.80;;
35803;SDS011;21924;51.934;7.414;2024-01-30T04:01:32;35.53;;;17.05;;
35803;SDS011;21924;51.934;7.414;2024-01-30T04:04:17;30.27;;;17.25;;
35803;SDS011;21924;51.934;7.414;2024-01-30T04:07:02;30.13;;;17.73;;
35803;SDS011;21924;51.934;7.414;2024-01-30T04:09:47;31.75;;;17.50;;
35803;SDS011;21924;51.934;7.414;2024-01-30T04:12:31;32.83;;;17.33;;
35803;SDS011;21924;51.934;7.414;2024-01-30T04:15:15;30.48;;;16.15;;
35803;SDS011;21924;51.934;7.414;2024-01-30T04:18:00;26.95;;;15.68;;
35803;SDS011;21924;51.934;7.414;2024-01-30T04:20:44;32.25;;;17.25;;
35803;SDS011;21924;51.934;7.414;2024-01-30T04:23:29;31.60;;;17.50;;
35803;SDS011;21924;51.934;7.414;2024-01-30T04:26:13;35.67;;;16.70;;
35803;SDS011;21924;51.934;7.414;2024-01-30T04:28:58;34.58;;;18.38;;
35803;SDS011;21924;51.934;7.414;2024-01-30T04:31:42;32.63;;;18.00;;
35803;SDS011;21924;51.934;7.414;2024-01-30T04:34:29;32.15;;;18.83;;
35803;SDS011;21924;51.934;7.414;2024-01-30T04:37:13;35.22;;;18.45;;
35803;SDS011;21924;51.934;7.414;2024-01-30T04:39:58;32.75;;;17.95;;
35803;SDS011;21924;51.934;7.414;2024-01-30T04:42:42;31.67;;;18.83;;
35803;SDS011;21924;51.934;7.414;2024-01-30T04:45:26;35.10;;;18.02;;
35803;SDS011;21924;51.934;7.414;2024-01-30T04:48:10;34.60;;;18.05;;
35803;SDS011;21924;51.934;7.414;2024-01-30T04:50:54;34.28;;;17.95;;
35803;SDS011;21924;51.934;7.414;2024-01-30T04:53:39;34.13;;;16.48;;
35803;SDS011;21924;51.934;7.414;2024-01-30T04:56:23;36.78;;;17.60;;
35803;SDS011;21924;51.934;7.414;2024-01-30T05:05:54;36.40;;;17.80;;
35803;SDS011;21924;51.934;7.414;2024-01-30T05:08:39;30.95;;;18.65;;
35803;SDS011;21924;51.934;7.414;2024-01-30T05:11:23;34.05;;;18.65;;
35803;SDS011;21924;51.934;7.414;2024-01-30T05:14:07;34.70;;;17.88;;
35803;SDS011;21924;51.934;7.414;2024-01-30T05:16:52;35.35;;;18.65;;
35803;SDS011;21924;51.934;7.414;2024-01-30T05:19:36;40.50;;;18.58;;
35803;SDS011;21924;51.934;7.414;2024-01-30T05:22:20;30.20;;;17.95;;
35803;SDS011;21924;51.934;7.414;2024-01-30T05:25:05;29.48;;;17.83;;
35803;SDS011;21924;51.934;7.414;2024-01-30T05:27:50;31.27;;;18.02;;
35803;SDS011;21924;51.934;7.414;2024-01-30T05:30:34;32.85;;;18.73;;
35803;SDS011;21924;51.934;7.414;2024-01-30T05:33:18;36.65;;;19.17;;
35803;SDS011;21924;51.934;7.414;2024-01-30T05:36:02;40.50;;;21.40;;
35803;SDS011;21924;51.934;7.414;2024-01-30T05:38:47;41.78;;;20.67;;
35803;SDS011;21924;51.934;7.414;2024-01-30T05:41:31;31.75;;;18.70;;
35803;SDS011;21924;51.934;7.414;2024-01-30T05:44:16;36.95;;;19.17;;
35803;SDS011;21924;51.934;7.414;2024-01-30T05:47:00;40.72;;;20.60;;
35803;SDS011;21924;51.934;7.414;2024-01-30T05:49:44;38.85;;;20.60;;
35803;SDS011;21924;51.934;7.414;2024-01-30T05:52:28;37.20;;;19.65;;
35803;SDS011;21924;51.934;7.414;2024-01-30T05:55:12;48.08;;;24.92;;
35803;SDS011;21924;51.934;7.414;2024-01-30T05:57:56;66.85;;;27.23;;
35803;SDS011;21924;51.934;7.414;2024-01-30T06:00:40;53.13;;;25.70;;
35803;SDS011;21924;51.934;7.414;2024-01-30T06:03:25;49.55;;;24.75;;
35803;SDS011;21924;51.934;7.414;2024-01-30T06:06:09;47.70;;;22.98;;
35803;SDS011;21924;51.934;7.414;2024-01-30T06:08:53;43.28;;;23.50;;
35803;SDS011;21924;51.934;7.414;2024-01-30T06:11:40;49.15;;;25.88;;
35803;SDS011;21924;51.934;7.414;2024-01-30T06:14:24;67.85;;;30.05;;
35803;SDS011;21924;51.934;7.414;2024-01-30T06:17:08;56.78;;;28.35;;
35803;SDS011;21924;51.934;7.414;2024-01-30T06:19:53;55.15;;;25.60;;
35803;SDS011;21924;51.934;7.414;2024-01-30T06:22:37;48.80;;;24.55;;
35803;SDS011;21924;51.934;7.414;2024-01-30T06:25:21;60.47;;;26.75;;
35803;SDS011;21924;51.934;7.414;2024-01-30T06:28:05;53.55;;;26.13;;
35803;SDS011;21924;51.934;7.414;2024-01-30T06:30:49;51.80;;;24.35;;
35803;SDS011;21924;51.934;7.414;2024-01-30T06:33:33;47.40;;;23.35;;
35803;SDS011;21924;51.934;7.414;2024-01-30T06:36:17;49.42;;;23.65;;
35803;SDS011;21924;51.934;7.414;2024-01-30T06:39:02;46.47;;;22.95;;
35803;SDS011;21924;51.934;7.414;2024-01-30T06:41:46;36.78;;;20.10;;
35803;SDS011;21924;51.934;7.414;2024-01-30T06:44:31;46.63;;;21.55;;
35803;SDS011;21924;51.934;7.414;2024-01-30T06:47:15;42.88;;;19.98;;
35803;SDS011;21924;51.934;7.414;2024-01-30T06:49:59;44.78;;;20.45;;
35803;SDS011;21924;51.934;7.414;2024-01-30T06:52:45;40.10;;;20.77;;
35803;SDS011;21924;51.934;7.414;2024-01-30T06:55:30;37.35;;;18.92;;
35803;SDS011;21924;51.934;7.414;2024-01-30T06:58:14;39.10;;;21.48;;
35803;SDS011;21924;51.934;7.414;2024-01-30T07:00:58;36.67;;;19.95;;
35803;SDS011;21924;51.934;7.414;2024-01-30T07:03:43;36.20;;;18.88;;
35803;SDS011;21924;51.934;7.414;2024-01-30T07:06:27;40.85;;;19.13;;
35803;SDS011;21924;51.934;7.414;2024-01-30T07:09:11;33.45;;;18.17;;
35803;SDS011;21924;51.934;7.414;2024-01-30T07:11:57;40.67;;;19.63;;
35803;SDS011;21924;51.934;7.414;2024-01-30T07:14:42;41.80;;;18.15;;
35803;SDS011;21924;51.934;7.414;2024-01-30T07:17:26;32.97;;;18.48;;
35803;SDS011;21924;51.934;7.414;2024-01-30T07:20:11;31.52;;;18.08;;
35803;SDS011;21924;51.934;7.414;2024-01-30T07:22:55;35.58;;;20.15;;
35803;SDS011;21924;51.934;7.414;2024-01-30T07:25:40;40.13;;;19.10;;
35803;SDS011;21924;51.934;7.414;2024-01-30T07:28:25;34.08;;;17.92;;
35803;SDS011;21924;51.934;7.414;2024-01-30T07:31:09;40.50;;;19.58;;
35803;SDS011;21924;51.934;7.414;2024-01-30T07:33:53;36.83;;;18.45;;
35803;SDS011;21924;51.934;7.414;2024-01-30T07:36:38;33.97;;;18.38;;
35803;SDS011;21924;51.934;7.414;2024-01-30T07:39:22;32.83;;;17.10;;
35803;SDS011;21924;51.934;7.414;2024-01-30T07:42:06;36.67;;;18.75;;
35803;SDS011;21924;51.934;7.414;2024-01-30T07:44:50;36.67;;;18.45;;
35803;SDS011;21924;51.934;7.414;2024-01-30T07:47:35;105.13;;;51.20;;
35803;SDS011;21924;51.934;7.414;2024-01-30T07:50:19;75.40;;;34.95;;
35803;SDS011;21924;51.934;7.414;2024-01-30T07:53:03;40.47;;;20.80;;
35803;SDS011;21924;51.934;7.414;2024-01-30T07:55:47;33.30;;;19.45;;
35803;SDS011;21924;51.934;7.414;2024-01-30T07:58:31;38.72;;;18.42;;
35803;SDS011;21924;51.934;7.414;2024-01-30T08:01:15;40.33;;;19.23;;
35803;SDS011;21924;51.934;7.414;2024-01-30T08:03:59;37.00;;;18.85;;
35803;SDS011;21924;51.934;7.414;2024-01-30T08:06:43;37.20;;;18.40;;
35803;SDS011;21924;51.934;7.414;2024-01-30T08:09:28;37.53;;;18.50;;
35803;SDS011;21924;51.934;7.414;2024-01-30T08:12:12;33.75;;;17.55;;
35803;SDS011;21924;51.934;7.414;2024-01-30T08:14:57;28.65;;;16.30;;
35803;SDS011;21924;51.934;7.414;2024-01-30T08:17:41;33.58;;;17.40;;
35803;SDS011;21924;51.934;7.414;2024-01-30T08:20:25;28.45;;;15.55;;
35803;SDS011;21924;51.934;7.414;2024-01-30T08:23:09;30.00;;;16.30;;
35803;SDS011;21924;51.934;7.414;2024-01-30T08:25:54;34.80;;;16.15;;
35803;SDS011;21924;51.934;7.414;2024-01-30T08:28:38;35.50;;;16.10;;
35803;SDS011;21924;51.934;7.414;2024-01-30T08:31:22;28.65;;;15.07;;
35803;SDS011;21924;51.934;7.414;2024-01-30T08:34:06;40.00;;;17.20;;
35803;SDS011;21924;51.934;7.414;2024-01-30T08:36:50;30.90;;;15.77;;
35803;SDS011;21924;51.934;7.414;2024-01-30T08:39:34;30.70;;;15.90;;
35803;SDS011;21924;51.934;7.414;2024-01-30T08:42:21;30.77;;;15.25;;
35803;SDS011;21924;51.934;7.414;2024-01-30T08:45:06;34.63;;;15.88;;
35803;SDS011;21924;51.934;7.414;2024-01-30T08:47:51;23.98;;;15.02;;
35803;SDS011;21924;51.934;7.414;2024-01-30T08:50:35;29.77;;;15.68;;
35803;SDS011;21924;51.934;7.414;2024-01-30T08:53:19;33.30;;;15.57;;
35803;SDS011;21924;51.934;7.414;2024-01-30T08:56:03;32.05;;;15.55;;
35803;SDS011;21924;51.934;7.414;2024-01-30T08:58:48;25.70;;;14.35;;
35803;SDS011;21924;51.934;7.414;2024-01-30T09:01:32;25.92;;;14.43;;
35803;SDS011;21924;51.934;7.414;2024-01-30T09:04:16;30.85;;;14.93;;
35803;SDS011;21924;51.934;7.414;2024-01-30T09:07:00;28.45;;;14.85;;
35803;SDS011;21924;51.934;7.414;2024-01-30T09:09:45;30.67;;;15.45;;
35803;SDS011;21924;51.934;7.414;2024-01-30T09:12:29;25.88;;;14.07;;
35803;SDS011;21924;51.934;7.414;2024-01-30T09:15:13;23.98;;;14.35;;
35803;SDS011;21924;51.934;7.414;2024-01-30T09:17:57;27.33;;;13.23;;
35803;SDS011;21924;51.934;7.414;2024-01-30T09:20:42;24.88;;;12.88;;
35803;SDS011;21924;51.934;7.414;2024-01-30T09:23:29;26.58;;;12.95;;
35803;SDS011;21924;51.934;7.414;2024-01-30T09:26:13;25.65;;;13.70;;
35803;SDS011;21924;51.934;7.414;2024-01-30T09:28:57;25.15;;;12.98;;
35803;SDS011;21924;51.934;7.414;2024-01-30T09:31:45;32.75;;;14.10;;
35803;SDS011;21924;51.934;7.414;2024-01-30T09:34:30;25.83;;;13.02;;
35803;SDS011;21924;51.934;7.414;2024-01-30T09:37:14;22.13;;;12.70;;
35803;SDS011;21924;51.934;7.414;2024-01-30T09:40:01;27.88;;;12.93;;
35803;SDS011;21924;51.934;7.414;2024-01-30T09:42:48;23.08;;;12.30;;
35803;SDS011;21924;51.934;7.414;2024-01-30T09:45:34;19.42;;;11.38;;
35803;SDS011;21924;51.934;7.414;2024-01-30T09:51:57;20.63;;;11.13;;
35803;SDS011;21924;51.934;7.414;2024-01-30T09:55:00;20.05;;;11.18;;
35803;SDS011;21924;51.934;7.414;2024-01-30T09:57:50;28.35;;;12.35;;
35803;SDS011;21924;51.934;7.414;2024-01-30T10:00:35;29.70;;;12.05;;
35803;SDS011;21924;51.934;7.414;2024-01-30T10:03:19;25.15;;;11.63;;
35803;SDS011;21924;51.934;7.414;2024-01-30T10:06:03;26.30;;;11.55;;
35803;SDS011;21924;51.934;7.414;2024-01-30T10:08:48;20.77;;;11.50;;
35803;SDS011;21924;51.934;7.414;2024-01-30T10:11:33;24.38;;;12.15;;
35803;SDS011;21924;51.934;7.414;2024-01-30T10:14:17;29.58;;;12.27;;
35803;SDS011;21924;51.934;7.414;2024-01-30T10:17:01;16.40;;;11.77;;
35803;SDS011;21924;51.934;7.414;2024-01-30T10:20:03;20.02;;;10.95;;
35803;SDS011;21924;51.934;7.414;2024-01-30T10:23:43;19.25;;;10.68;;
35803;SDS011;21924;51.934;7.414;2024-01-30T10:26:28;17.33;;;10.18;;
35803;SDS011;21924;51.934;7.414;2024-01-30T10:29:12;21.55;;;10.40;;
35803;SDS011;21924;51.934;7.414;2024-01-30T10:32:00;16.52;;;9.77;;
35803;SDS011;21924;51.934;7.414;2024-01-30T10:35:04;19.92;;;11.02;;
35803;SDS011;21924;51.934;7.414;2024-01-30T10:38:05;22.17;;;11.90;;
35803;SDS011;21924;51.934;7.414;2024-01-30T10:40:59;36.90;;;16.73;;
35803;SDS011;21924;51.934;7.414;2024-01-30T10:43:47;30.40;;;14.88;;
35803;SDS011;21924;51.934;7.414;2024-01-30T10:46:41;27.27;;;12.13;;
35803;SDS011;21924;51.934;7.414;2024-01-30T10:49:29;21.65;;;11.77;;
35803;SDS011;21924;51.934;7.414;2024-01-30T10:52:14;22.92;;;10.18;;
35803;SDS011;21924;51.934;7.414;2024-01-30T10:57:45;21.50;;;11.43;;
35803;SDS011;21924;51.934;7.414;2024-01-30T11:00:29;39.85;;;17.30;;
35803;SDS011;21924;51.934;7.414;2024-01-30T11:03:13;32.10;;;12.25;;
35803;SDS011;21924;51.934;7.414;2024-01-30T11:05:59;30.00;;;13.70;;
35803;SDS011;21924;51.934;7.414;2024-01-30T11:08:44;19.60;;;9.02;;
35803;SDS011;21924;51.934;7.414;2024-01-30T11:11:29;16.33;;;8.40;;
35803;SDS011;21924;51.934;7.414;2024-01-30T11:14:13;14.63;;;8.88;;
35803;SDS011;21924;51.934;7.414;2024-01-30T11:16:58;24.90;;;9.75;;
35803;SDS011;21924;51.934;7.414;2024-01-30T11:19:43;15.23;;;8.10;;
35803;SDS011;21924;51.934;7.414;2024-01-30T11:22:30;20.55;;;9.20;;
35803;SDS011;21924;51.934;7.414;2024-01-30T11:25:15;16.02;;;8.35;;
35803;SDS011;21924;51.934;7.414;2024-01-30T11:28:00;15.48;;;8.15;;
35803;SDS011;21924;51.934;7.414;2024-01-30T11:30:44;14.27;;;8.18;;
35803;SDS011;21924;51.934;7.414;2024-01-30T11:37:09;19.42;;;8.77;;
35803;SDS011;21924;51.934;7.414;2024-01-30T11:40:10;25.35;;;11.55;;
35803;SDS011;21924;51.934;7.414;2024-01-30T11:46:36;16.40;;;7.68;;
35803;SDS011;21924;51.934;7.414;2024-01-30T11:49:21;17.95;;;7.55;;
35803;SDS011;21924;51.934;7.414;2024-01-30T11:52:06;18.05;;;7.50;;
35803;SDS011;21924;51.934;7.414;2024-01-30T11:54:51;15.75;;;7.75;;
35803;SDS011;21924;51.934;7.414;2024-01-30T11:57:35;16.58;;;8.15;;
35803;SDS011;21924;51.934;7.414;2024-01-30T12:00:20;16.13;;;7.47;;
35803;SDS011;21924;51.934;7.414;2024-01-30T12:10:26;17.27;;;9.50;;
35803;SDS011;21924;51.934;7.414;2024-01-30T12:13:10;14.02;;;8.75;;
35803;SDS011;21924;51.934;7.414;2024-01-30T12:15:56;14.93;;;9.30;;
35803;SDS011;21924;51.934;7.414;2024-01-30T12:18:40;14.70;;;9.07;;
35803;SDS011;21924;51.934;7.414;2024-01-30T12:21:24;19.50;;;9.10;;
35803;SDS011;21924;51.934;7.414;2024-01-30T12:24:09;18.67;;;8.25;;
35803;SDS011;21924;51.934;7.414;2024-01-30T12:26:57;20.13;;;8.10;;
35803;SDS011;21924;51.934;7.414;2024-01-30T12:29:42;15.82;;;8.02;;
35803;SDS011;21924;51.934;7.414;2024-01-30T12:32:27;19.05;;;8.82;;
35803;SDS011;21924;51.934;7.414;2024-01-30T12:35:12;13.60;;;7.47;;
35803;SDS011;21924;51.934;7.414;2024-01-30T12:37:58;18.85;;;9.23;;
35803;SDS011;21924;51.934;7.414;2024-01-30T12:40:42;15.93;;;7.88;;
35803;SDS011;21924;51.934;7.414;2024-01-30T12:43:26;16.67;;;9.43;;
35803;SDS011;21924;51.934;7.414;2024-01-30T12:46:12;17.58;;;8.10;;
35803;SDS011;21924;51.934;7.414;2024-01-30T12:48:56;13.98;;;8.68;;
35803;SDS011;21924;51.934;7.414;2024-01-30T12:51:40;17.20;;;9.15;;
35803;SDS011;21924;51.934;7.414;2024-01-30T12:54:24;22.73;;;10.50;;
35803;SDS011;21924;51.934;7.414;2024-01-30T12:57:09;24.38;;;11.93;;
35803;SDS011;21924;51.934;7.414;2024-01-30T12:59:53;48.35;;;18.73;;
35803;SDS011;21924;51.934;7.414;2024-01-30T13:02:37;20.67;;;9.63;;
35803;SDS011;21924;51.934;7.414;2024-01-30T13:05:22;18.88;;;10.88;;
35803;SDS011;21924;51.934;7.414;2024-01-30T13:08:06;33.75;;;16.63;;
35803;SDS011;21924;51.934;7.414;2024-01-30T13:10:50;25.23;;;11.88;;
35803;SDS011;21924;51.934;7.414;2024-01-30T13:13:34;14.45;;;8.20;;
35803;SDS011;21924;51.934;7.414;2024-01-30T13:16:19;14.75;;;8.40;;
35803;SDS011;21924;51.934;7.414;2024-01-30T13:19:03;14.82;;;8.35;;
35803;SDS011;21924;51.934;7.414;2024-01-30T13:21:47;19.48;;;8.82;;
35803;SDS011;21924;51.934;7.414;2024-01-30T13:24:32;16.05;;;8.35;;
35803;SDS011;21924;51.934;7.414;2024-01-30T13:27:16;14.23;;;8.88;;
35803;SDS011;21924;51.934;7.414;2024-01-30T13:30:01;21.05;;;8.88;;
35803;SDS011;21924;51.934;7.414;2024-01-30T13:32:46;14.70;;;8.70;;
35803;SDS011;21924;51.934;7.414;2024-01-30T13:35:30;31.45;;;16.10;;
35803;SDS011;21924;51.934;7.414;2024-01-30T13:38:14;22.60;;;11.55;;
35803;SDS011;21924;51.934;7.414;2024-01-30T13:40:59;24.30;;;12.52;;
35803;SDS011;21924;51.934;7.414;2024-01-30T13:43:44;34.05;;;15.18;;
35803;SDS011;21924;51.934;7.414;2024-01-30T13:46:29;34.20;;;19.17;;
35803;SDS011;21924;51.934;7.414;2024-01-30T13:49:13;23.90;;;11.68;;
35803;SDS011;21924;51.934;7.414;2024-01-30T13:55:21;23.92;;;11.25;;
35803;SDS011;21924;51.934;7.414;2024-01-30T13:58:05;26.38;;;10.88;;
35803;SDS011;21924;51.934;7.414;2024-01-30T14:00:50;19.65;;;9.65;;
35803;SDS011;21924;51.934;7.414;2024-01-30T14:03:34;26.23;;;11.13;;
35803;SDS011;21924;51.934;7.414;2024-01-30T14:06:24;20.73;;;9.68;;
35803;SDS011;21924;51.934;7.414;2024-01-30T14:09:08;19.65;;;9.02;;
35803;SDS011;21924;51.934;7.414;2024-01-30T14:11:54;25.48;;;10.15;;
35803;SDS011;21924;51.934;7.414;2024-01-30T14:18:23;30.45;;;12.52;;
35803;SDS011;21924;51.934;7.414;2024-01-30T14:21:25;23.35;;;10.02;;
35803;SDS011;21924;51.934;7.414;2024-01-30T14:27:50;21.83;;;10.80;;
35803;SDS011;21924;51.934;7.414;2024-01-30T14:30:35;35.90;;;12.95;;
35803;SDS011;21924;51.934;7.414;2024-01-30T14:33:25;28.10;;;11.70;;
35803;SDS011;21924;51.934;7.414;2024-01-30T14:37:08;15.13;;;8.75;;
35803;SDS011;21924;51.934;7.414;2024-01-30T14:54:28;15.57;;;7.80;;
35803;SDS011;21924;51.934;7.414;2024-01-30T15:08:21;14.05;;;7.80;;
35803;SDS011;21924;51.934;7.414;2024-01-30T15:32:32;12.32;;;6.40;;
35803;SDS011;21924;51.934;7.414;2024-01-30T15:35:31;14.60;;;5.68;;
35803;SDS011;21924;51.934;7.414;2024-01-30T15:38:31;13.55;;;5.72;;
35803;SDS011;21924;51.934;7.414;2024-01-30T15:48:42;8.02;;;3.20;;
35803;SDS011;21924;51.934;7.414;2024-01-30T15:51:34;4.70;;;3.50;;
35803;SDS011;21924;51.934;7.414;2024-01-30T15:54:31;7.38;;;3.70;;
35803;SDS011;21924;51.934;7.414;2024-01-30T15:57:34;9.65;;;4.00;;
35803;SDS011;21924;51.934;7.414;2024-01-30T16:08:37;4.28;;;3.13;;
35803;SDS011;21924;51.934;7.414;2024-01-30T16:29:41;6.22;;;3.35;;
35803;SDS011;21924;51.934;7.414;2024-01-30T16:32:34;5.05;;;3.28;;
35803;SDS011;21924;51.934;7.414;2024-01-30T16:43:43;5.00;;;2.60;;
35803;SDS011;21924;51.934;7.414;2024-01-30T16:50:34;5.10;;;3.38;;
35803;SDS011;21924;51.934;7.414;2024-01-30T16:53:34;7.43;;;3.50;;
35803;SDS011;21924;51.934;7.414;2024-01-30T16:56:35;4.82;;;3.30;;
35803;SDS011;21924;51.934;7.414;2024-01-30T17:06:40;7.75;;;4.57;;
35803;SDS011;21924;51.934;7.414;2024-01-30T17:09:37;9.18;;;6.20;;
35803;SDS011;21924;51.934;7.414;2024-01-30T17:12:36;12.55;;;7.13;;
35803;SDS011;21924;51.934;7.414;2024-01-30T17:15:36;8.75;;;6.45;;
35803;SDS011;21924;51.934;7.414;2024-01-30T17:18:36;8.13;;;5.13;;
35803;SDS011;21924;51.934;7.414;2024-01-30T17:22:36;4.40;;;3.97;;
35803;SDS011;21924;51.934;7.414;2024-01-30T17:25:38;7.68;;;5.43;;
35803;SDS011;21924;51.934;7.414;2024-01-30T17:28:38;8.20;;;5.35;;
35803;SDS011;21924;51.934;7.414;2024-01-30T17:31:31;7.13;;;4.60;;
35803;SDS011;21924;51.934;7.414;2024-01-30T17:34:37;5.28;;;4.07;;
35803;SDS011;21924;51.934;7.414;2024-01-30T17:59:38;9.93;;;5.88;;
35803;SDS011;21924;51.934;7.414;2024-01-30T19:16:57;14.85;;;7.40;;
35803;SDS011;21924;51.934;7.414;2024-01-30T20:18:47;18.42;;;9.18;;
35803;SDS011;21924;51.934;7.414;2024-01-30T20:21:46;22.30;;;10.90;;
35803;SDS011;21924;51.934;7.414;2024-01-30T20:32:14;18.75;;;10.70;;
35803;SDS011;21924;51.934;7.414;2024-01-30T20:35:26;20.75;;;10.75;;
35803;SDS011;21924;51.934;7.414;2024-01-30T21:03:54;26.92;;;11.82;;
35803;SDS011;21924;51.934;7.414;2024-01-30T21:29:52;17.90;;;9.10;;
35803;SDS011;21924;51.934;7.414;2024-01-30T21:32:51;21.45;;;9.90;;
35803;SDS011;21924;51.934;7.414;2024-01-30T21:35:52;19.52;;;8.85;;
35803;SDS011;21924;51.934;7.414;2024-01-30T21:49:53;15.27;;;8.48;;
35803;SDS011;21924;51.934;7.414;2024-01-30T22:11:06;18.80;;;8.68;;
35803;SDS011;21924;51.934;7.414;2024-01-30T22:14:03;16.35;;;8.20;;
35803;SDS011;21924;51.934;7.414;2024-01-30T22:45:57;21.85;;;9.38;;
35803;SDS011;21924;51.934;7.414;2024-01-30T22:52:31;27.83;;;8.85;;
35803;SDS011;21924;51.934;7.414;2024-01-30T23:02:22;18.77;;;7.88;;
35803;SDS011;21924;51.934;7.414;2024-01-30T23:08:56;12.45;;;6.43;;
35803;SDS011;21924;51.934;7.414;2024-01-30T23:11:57;15.80;;;6.38;;
35803;SDS011;21924;51.934;7.414;2024-01-30T23:14:57;12.68;;;6.57;;
35803;SDS011;21924;51.934;7.414;2024-01-30T23:17:59;14.30;;;7.05;;
35803;SDS011;21924;51.934;7.414;2024-01-30T23:21:46;17.63;;;6.22;;
35803;SDS011;21924;51.934;7.414;2024-01-30T23:25:28;12.57;;;5.43;;
35803;SDS011;21924;51.934;7.414;2024-01-30T23:28:12;15.98;;;6.63;;